<<    Juli 2012    >>
Datum    Temp.       Tempmin      Tempmax    Taup.       Taup.min      Taup.max    Feuchte    Feuchtemin    Feuchtemax    Druck    Druckmin    Druckmax    Regen    Wind    Benmax  
  01.07.2012  18,8    14,3    23:56    23,3    17:03  11,1    5,7    22:41    14,7    00:00  62,7    39    18:55    91    06:49  1015,4    1011    00:00    1021    22:39  0,0  2,2  24,5  
  02.07.2012  17,3    11,1    05:22    23,1    17:16  9,3    7,3    00:14    11,6    09:36  61,3    40    17:39    85    06:59  1019,5    1017    16:53    1022    05:09  0,0  1,1  13,0  
  03.07.2012  20,2    13,6    05:20    27,2    15:00  11,9    8,6    17:19    14,6    10:25  62,7    33    17:09    95    05:58  1016,7    1015    15:08    1019    04:24  0,0  0,9  9,7  
  04.07.2012  23,2    17,5    05:35    29,3    15:19  13,2    11,1    18:29    15,0    10:24  56,0    35    15:24    81    05:48  1012,3    1009    18:38    1016    00:00  0,0  1,4  15,1  
  05.07.2012  23,7    19,3    05:47    30,0    13:34  15,8    13,4    00:01    17,9    20:52  62,2    39    13:32    77    06:19  1008,2    1005    22:08    1011    00:23  0,0  1,2  13,7  
  06.07.2012  21,8    18,7    05:14    27,2    16:19  13,8    9,6    18:40    16,7    00:17  62,5    35    17:45    80    03:26  1008,4    1005    00:38    1012    22:52  0,0  2,1  16,6  
  07.07.2012  20,2    15,2    05:51    25,5    17:24  13,3    10,2    19:43    19,4    14:21  66,1    42    19:26    96    13:41  1010,9    1008    23:52    1013    03:07  4,8  1,0  17,6  
  08.07.2012  18,5    16,1    08:08    21,7    18:33  14,4    10,7    19:04    19,4    13:13  78,4    51    19:04    98    09:37  1006,8    1005    05:06    1010    22:21  9,6  2,4  15,8  
  09.07.2012  19,6    15,6    06:09    24,3    16:26  11,6    8,8    18:15    13,2    08:19  61,6    39    18:15    79    04:54  1011,8    1009    00:00    1014    23:59  0,0  3,5  17,6  
  10.07.2012  18,5    15,4    02:47    24,9    12:18  14,5    11,4    12:44    19,1    17:45  79,4    45    12:25    98    17:16  1012,3    1010    18:06    1015    03:35  6,7  1,0  14,0  
  11.07.2012  16,3    13,8    22:14    21,3    16:32  12,7    7,3    17:06    15,7    00:00  80,8    44    15:40    98    00:00  1012,0    1011    00:21    1014    23:51  0,9  2,0  21,2  
  12.07.2012  16,8    13,3    04:47    21,5    16:23  8,1    3,9    16:44    10,8    06:35  58,8    34    16:16    82    05:23  1014,1    1013    01:21    1016    14:36  0,0  3,6  24,5  
  13.07.2012  16,4    14,0    06:43    21,6    16:09  14,2    9,2    00:00    18,6    15:02  88,4    58    16:42    98    04:47  1006,3    1002    20:05    1014    00:00  8,5  1,6  12,6  
  14.07.2012  15,8    13,6    06:05    18,9    19:59  14,1    11,9    20:58    16,7    17:38  90,5    68    19:59    98    00:00  1004,5    1000    03:51    1009    22:50  9,5  2,2  16,2  
  15.07.2012  14,9    13,8    03:56    17,3    17:07  13,8    12,0    19:21    16,5    17:03  93,1    77    19:21    98    10:16  1013,3    1009    00:00    1020    23:05  8,5  1,3  15,8  
  16.07.2012  15,3    12,6    02:01    19,4    12:29  11,8    8,1    14:14    13,8    20:43  81,4    50    12:43    98    02:29  1022,4    1019    00:00    1024    08:50  1,8  2,6  19,8  
  17.07.2012  17,0    14,2    00:00    20,9    17:18  15,4    13,7    00:00    18,3    14:15  90,9    68    17:31    98    00:02  1020,5    1017    04:39    1023    13:24  4,9  3,6  22,3  
  18.07.2012  20,5    14,9    04:04    27,6    16:35  13,8    8,9    23:38    16,9    09:10  69,0    35    16:36    97    04:49  1014,6    1009    17:54    1021    00:00  0,0  3,1  22,7  
  19.07.2012  17,1    14,5    23:29    21,1    15:49  12,9    9,1    00:02    15,8    17:51  76,7    54    00:00    97    23:40  1009,3    1006    05:09    1012    20:54  5,7  3,6  28,1  
  20.07.2012  16,1    13,7    02:12    19,9    16:49  13,7    10,8    17:01    15,6    15:03  86,6    57    16:55    98    00:17  1014,4    1012    00:00    1017    22:53  1,8  1,5  13,0  
  21.07.2012  16,0    13,1    23:57    19,5    14:20  9,9    5,8    18:22    14,2    00:00  70,1    43    14:28    98    05:05  1021,3    1017    00:00    1026    23:23  1,0  2,3  13,0  
  22.07.2012  16,1    9,1    06:03    22,9    16:43  8,3    5,3    18:46    12,2    08:45  64,5    34    17:35    95    07:08  1027,3    1025    02:08    1029    11:39  0,0  1,2  16,2  
  23.07.2012  19,4    12,1    04:53    27,4    16:37  8,4    5,9    15:13    10,5    08:31  53,7    27    16:49    83    05:06  1025,9    1021    21:08    1029    03:23  0,0  1,6  15,5  
  24.07.2012  21,4    12,4    06:09    30,5    17:06  11,1    9,4    14:10    13,8    23:44  55,9    29    15:36    86    06:49  1018,2    1013    19:52    1022    00:00  0,0  1,2  15,5  
  25.07.2012  23,9    16,1    06:25    31,8    15:39  13,7    10,9    17:53    16,9    10:53  57,5    29    16:44    89    06:41  1013,7    1012    17:52    1014    00:00  0,0  1,6  11,9  
  26.07.2012  24,8    18,2    06:00    31,9    16:25  15,2    12,7    17:26    18,7    11:25  58,7    32    17:01    89    07:23  1014,8    1013    16:37    1016    06:07  0,0  2,0  13,0  
  27.07.2012  24,0    20,0    06:32    33,1    14:50  17,6    12,2    16:10    21,2    19:29  70,8    30    15:46    95    22:56  1009,6    1006    23:59    1014    00:00  3,9  1,4  20,2  
  28.07.2012  19,9    18,4    03:07    22,5    19:01  18,7    17,4    19:23    20,4    15:41  93,0    75    18:42    98    23:59  1006,8    1004    01:51    1009    16:21  9,4  1,3  12,2  
  29.07.2012  18,4    15,1    06:53    22,6    16:31  11,3    5,1    15:25    18,6    00:00  67,1    33    15:25    98    00:00  1011,8    1007    00:00    1015    23:59  0,0  3,2  20,2  
  30.07.2012  16,2    13,2    06:04    20,8    15:27  10,5    6,5    15:37    13,6    07:50  70,7    41    15:37    97    06:36  1016,8    1015    00:00    1018    10:36  3,0  2,4  24,8  
  31.07.2012  17,8    13,7    04:24    23,1    12:24  10,3    7,7    16:05    11,9    08:18  62,9    42    13:14    83    04:51  1018,1    1017    00:00    1019    07:21  0,0  1,2  10,4  
 
  Gesamt  18,9  9,1            33,1            12,7  3,9            21,2            70,8  27            98            1014,1  1000            1029            79,7  2,0  28,1  
 
  Mittelwert  18,9  14,7            24,3            12,7  9,4            15,9            70,8  43,8            92,0            1014,1  1011,0            1017,2            2,6  2,0  17,0  
  Minimum  14,9  9,1            17,3            8,1  3,9            10,5            53,7  27,0            77,0            1004,5  1000,0            1009,0            0,0  0,9  9,7  
  Maximum  24,8  20,0            33,1            18,7  17,4            21,2            93,1  77,0            98,0            1027,3  1025,0            1029,0            9,6  3,6  28,1  

  Heie Tage    Tmax >=30C     5  
  Sommertage    Tmax >=25C     11  
  Warme Tage    Tmax >=20C     26  
  Kalte Tage    Tmax  <10C     0  
  Frosttage    Tmin  <0C     0  
  Eistage    Tmax  <0C     0  
  Regentage > 0 mm    15  
  Regentage > 2 mm    11  
  Regentage > 10 mm    0  
  Regentage > 20 mm    0